createdAt,value
2023-04-06T00:00:51.733Z,100743.78
2023-04-06T00:03:19.005Z,100727.09
2023-04-06T00:05:46.266Z,100748.81
2023-04-06T00:08:13.264Z,100720.88
2023-04-06T00:10:40.577Z,100719.94
2023-04-06T00:13:08.489Z,100720.88
2023-04-06T00:15:35.716Z,100735.28
2023-04-06T00:18:03.614Z,100746.44
2023-04-06T00:20:30.682Z,100745.44
2023-04-06T00:22:57.684Z,100752.13
2023-04-06T00:25:24.792Z,100745.78
2023-04-06T00:27:51.874Z,100727.84
2023-04-06T00:30:19.060Z,100749.72
2023-04-06T00:32:46.186Z,100742.63
2023-04-06T00:35:13.413Z,100744.28
2023-04-06T00:37:40.551Z,100742.56
2023-04-06T00:40:08.185Z,100748.84
2023-04-06T00:42:35.417Z,100726.81
2023-04-06T00:45:03.203Z,100746.63
2023-04-06T00:47:31.482Z,100743.91
2023-04-06T00:49:58.524Z,100738.34
2023-04-06T00:52:25.687Z,100745.97
2023-04-06T00:54:54.188Z,100747.31
2023-04-06T00:57:22.827Z,100729.53
2023-04-06T00:59:55.578Z,100729.25
2023-04-06T01:02:23.255Z,100732.03
2023-04-06T01:04:55.177Z,100731.59
2023-04-06T01:07:35.708Z,100721.78
2023-04-06T01:10:12.874Z,100736.81
2023-04-06T01:12:40.273Z,100740.19
2023-04-06T01:15:16.476Z,100720.69
2023-04-06T01:17:48.906Z,100739.09
2023-04-06T01:20:17.666Z,100736.50
2023-04-06T01:22:44.828Z,100692.25
2023-04-06T01:25:13.445Z,100738.94
2023-04-06T01:27:54.638Z,100676.28
2023-04-06T01:30:44.723Z,100738.94
2023-04-06T01:33:23.297Z,100733.94
2023-04-06T01:36:10.607Z,100740.72
2023-04-06T01:38:37.698Z,100742.53
2023-04-06T01:41:04.799Z,100741.75
2023-04-06T01:43:41.165Z,100743.41
2023-04-06T01:46:10.622Z,100746.75
2023-04-06T01:48:41.318Z,100742.34
2023-04-06T01:51:23.126Z,100736.00
2023-04-06T01:53:57.584Z,100738.94
2023-04-06T01:56:33.593Z,100742.16
2023-04-06T01:59:09.525Z,100736.06
2023-04-06T02:01:40.836Z,100728.78
2023-04-06T02:04:07.958Z,100678.25
2023-04-06T02:06:35.034Z,100735.00
2023-04-06T02:09:03.928Z,100742.91
2023-04-06T02:11:31.444Z,100735.75
2023-04-06T02:13:58.627Z,100700.34
2023-04-06T02:16:49.808Z,100742.38
2023-04-06T02:19:17.050Z,100750.97
2023-04-06T02:21:44.370Z,100746.25
2023-04-06T02:24:11.560Z,100750.59
2023-04-06T02:26:38.557Z,100739.44
2023-04-06T02:29:05.848Z,100759.69
2023-04-06T02:31:33.773Z,100759.63
2023-04-06T02:34:01.983Z,100748.06
2023-04-06T02:36:31.067Z,100767.09
2023-04-06T02:38:58.242Z,100744.34
2023-04-06T02:41:25.406Z,100766.09
2023-04-06T02:43:52.447Z,100771.06
2023-04-06T02:46:36.546Z,100760.63
2023-04-06T02:49:04.196Z,100710.16
2023-04-06T02:51:34.475Z,100768.59
2023-04-06T02:54:15.283Z,100783.78
2023-04-06T02:56:42.305Z,100774.38
2023-04-06T02:59:09.688Z,100779.59
2023-04-06T03:01:37.433Z,100746.09
2023-04-06T03:04:06.485Z,100767.22
2023-04-06T03:06:33.640Z,100768.09
2023-04-06T03:09:10.686Z,100784.72
2023-04-06T03:11:41.422Z,100767.22
2023-04-06T03:14:08.391Z,100786.50
2023-04-06T03:16:35.706Z,100787.50
2023-04-06T03:19:03.387Z,100773.56
2023-04-06T03:21:34.125Z,100789.72
2023-04-06T03:24:01.533Z,100783.59
2023-04-06T03:26:28.558Z,100792.28
2023-04-06T03:28:55.847Z,100785.31
2023-04-06T03:31:28.335Z,100793.16
2023-04-06T03:34:01.173Z,100803.78
2023-04-06T03:36:34.979Z,100799.53
2023-04-06T03:39:03.772Z,100800.41
2023-04-06T03:41:33.786Z,100798.56
2023-04-06T03:44:11.233Z,100806.75
2023-04-06T03:46:38.315Z,100793.50
2023-04-06T03:49:05.439Z,100809.44
2023-04-06T03:51:32.574Z,100817.38
2023-04-06T03:53:59.565Z,100818.34
2023-04-06T03:56:26.634Z,100800.47
2023-04-06T03:58:55.086Z,100824.88
2023-04-06T04:01:22.341Z,100796.13
2023-04-06T04:03:51.571Z,100811.63
2023-04-06T04:06:19.077Z,100811.38
2023-04-06T04:08:46.662Z,100819.28
2023-04-06T04:11:13.676Z,100813.78
2023-04-06T04:13:40.925Z,100815.44
2023-04-06T04:16:09.409Z,100830.16
2023-04-06T04:18:37.798Z,100836.16
2023-04-06T04:21:07.021Z,100833.97
2023-04-06T04:23:37.119Z,100829.22
2023-04-06T04:26:04.611Z,100828.13
2023-04-06T04:28:31.737Z,100797.25
2023-04-06T04:30:58.996Z,100822.97
2023-04-06T04:33:26.349Z,100821.00
2023-04-06T04:35:56.429Z,100825.00
2023-04-06T04:38:26.117Z,100815.38
2023-04-06T04:40:56.086Z,100828.69
2023-04-06T04:43:23.578Z,100828.84
2023-04-06T04:45:50.821Z,100818.50
2023-04-06T04:48:40.812Z,100836.38
2023-04-06T04:51:08.954Z,100830.88
2023-04-06T04:54:02.450Z,100820.75
2023-04-06T04:56:32.080Z,100830.09
2023-04-06T04:59:21.978Z,100836.84
2023-04-06T05:01:56.596Z,100816.47
2023-04-06T05:04:34.202Z,100821.78
2023-04-06T05:07:08.984Z,100834.88
2023-04-06T05:09:38.234Z,100818.66
2023-04-06T05:12:06.519Z,100840.03
2023-04-06T05:14:39.520Z,100831.44
2023-04-06T05:17:12.837Z,100845.41
2023-04-06T05:19:39.954Z,100845.25
2023-04-06T05:22:07.835Z,100841.44
2023-04-06T05:24:37.497Z,100836.56
2023-04-06T05:27:07.786Z,100827.84
2023-04-06T05:29:34.849Z,100837.38
2023-04-06T05:32:03.077Z,100838.53
2023-04-06T05:34:30.944Z,100817.75
2023-04-06T05:37:02.403Z,100819.81
2023-04-06T05:39:29.540Z,100840.66
2023-04-06T05:41:56.792Z,100831.97
2023-04-06T05:44:47.066Z,100820.69
2023-04-06T05:47:16.412Z,100835.63
2023-04-06T05:49:46.067Z,100814.03
2023-04-06T05:52:25.024Z,100830.19
2023-04-06T05:54:52.986Z,100836.63
2023-04-06T05:57:20.016Z,100825.28
2023-04-06T05:59:47.043Z,100836.31
2023-04-06T06:02:15.693Z,100837.91
2023-04-06T06:04:47.018Z,100779.78
2023-04-06T06:07:16.404Z,100826.50
2023-04-06T06:09:48.347Z,100825.03
2023-04-06T06:12:21.544Z,100832.66
2023-04-06T06:14:50.396Z,100814.47
2023-04-06T06:17:17.403Z,100817.78
2023-04-06T06:19:47.008Z,100818.28
2023-04-06T06:22:14.376Z,100829.28
2023-04-06T06:24:45.426Z,100825.59
2023-04-06T06:27:13.078Z,100816.56
2023-04-06T06:29:40.396Z,100783.09
2023-04-06T06:32:07.770Z,100824.03
2023-04-06T06:34:34.956Z,100824.84
2023-04-06T06:37:04.734Z,100829.94
2023-04-06T06:39:32.166Z,100831.75
2023-04-06T06:42:01.761Z,100832.66
2023-04-06T06:44:49.105Z,100824.75
2023-04-06T06:47:16.287Z,100823.03
2023-04-06T06:49:45.096Z,100831.84
2023-04-06T06:52:12.190Z,100807.44
2023-04-06T06:54:39.294Z,100817.03
2023-04-06T06:57:06.316Z,100822.75
2023-04-06T06:59:33.402Z,100809.59
2023-04-06T07:02:00.830Z,100801.81
2023-04-06T07:04:27.972Z,100820.31
2023-04-06T07:06:55.028Z,100794.66
2023-04-06T07:09:22.928Z,100812.34
2023-04-06T07:11:49.986Z,100815.88
2023-04-06T07:14:17.637Z,100822.75
2023-04-06T07:16:48.020Z,100814.88
2023-04-06T07:19:16.102Z,100821.41
2023-04-06T07:21:43.542Z,100817.66
2023-04-06T07:24:11.350Z,100811.44
2023-04-06T07:26:38.516Z,100819.00
2023-04-06T07:29:05.709Z,100806.28
2023-04-06T07:31:33.126Z,100807.47
2023-04-06T07:34:00.480Z,100810.69
2023-04-06T07:36:27.662Z,100803.91
2023-04-06T07:38:54.741Z,100795.19
2023-04-06T07:41:23.382Z,100792.28
2023-04-06T07:43:50.881Z,100810.41
2023-04-06T07:46:18.643Z,100811.56
2023-04-06T07:48:45.798Z,100806.63
2023-04-06T07:51:15.395Z,100792.47
2023-04-06T07:53:44.061Z,100803.13
2023-04-06T07:56:11.371Z,100804.00
2023-04-06T07:58:38.427Z,100784.66
2023-04-06T08:01:05.741Z,100797.44
2023-04-06T08:03:35.871Z,100801.56
2023-04-06T08:06:03.632Z,100789.56
2023-04-06T08:08:31.891Z,100802.78
2023-04-06T08:11:01.403Z,100761.50
2023-04-06T08:13:29.574Z,100796.53
2023-04-06T08:15:56.638Z,100779.63
2023-04-06T08:18:23.706Z,100799.31
2023-04-06T08:20:50.820Z,100793.47
2023-04-06T08:23:17.798Z,100804.19
2023-04-06T08:25:44.812Z,100788.22
2023-04-06T08:28:12.327Z,100799.06
2023-04-06T08:30:43.022Z,100772.09
2023-04-06T08:33:11.239Z,100791.50
2023-04-06T08:35:38.409Z,100788.78
2023-04-06T08:38:05.951Z,100799.78
2023-04-06T08:40:38.466Z,100792.84
2023-04-06T08:43:10.245Z,100793.06
2023-04-06T08:45:37.294Z,100800.91
2023-04-06T08:48:04.616Z,100789.50
2023-04-06T08:50:33.512Z,100799.97
2023-04-06T08:53:01.165Z,100789.91
2023-04-06T08:55:28.673Z,100786.50
2023-04-06T08:57:56.853Z,100791.88
2023-04-06T09:00:24.831Z,100763.53
2023-04-06T09:02:56.618Z,100789.22
2023-04-06T09:05:26.769Z,100782.97
2023-04-06T09:07:54.206Z,100797.22
2023-04-06T09:10:21.845Z,100790.44
2023-04-06T09:12:48.966Z,100783.41
2023-04-06T09:15:24.918Z,100774.47
2023-04-06T09:17:54.984Z,100768.38
2023-04-06T09:20:32.127Z,100772.53
2023-04-06T09:22:59.226Z,100779.75
2023-04-06T09:25:29.612Z,100769.09
2023-04-06T09:28:01.516Z,100777.84
2023-04-06T09:30:28.719Z,100761.09
2023-04-06T09:32:57.582Z,100779.28
2023-04-06T09:35:27.599Z,100768.53
2023-04-06T09:37:55.454Z,100773.34
2023-04-06T09:40:23.405Z,100760.34
2023-04-06T09:42:53.880Z,100771.78
2023-04-06T09:45:22.047Z,100768.78
2023-04-06T09:47:51.412Z,100759.03
2023-04-06T09:50:20.219Z,100755.63
2023-04-06T09:52:52.817Z,100754.38
2023-04-06T09:55:44.466Z,100762.63
2023-04-06T09:58:15.314Z,100747.31
2023-04-06T10:00:54.350Z,100763.91
2023-04-06T10:03:24.304Z,100778.00
2023-04-06T10:05:56.716Z,100769.94
2023-04-06T10:08:31.850Z,100771.53
2023-04-06T10:11:01.805Z,100754.47
2023-04-06T10:13:28.911Z,100768.69
2023-04-06T10:15:58.471Z,100771.44
2023-04-06T10:18:25.901Z,100767.03
2023-04-06T10:21:14.088Z,100769.22
2023-04-06T10:23:51.742Z,100750.16
2023-04-06T10:26:22.146Z,100778.50
2023-04-06T10:28:50.415Z,100765.25
2023-04-06T10:31:28.636Z,100766.84
2023-04-06T10:34:03.757Z,100735.06
2023-04-06T10:36:35.072Z,100739.13
2023-04-06T10:39:05.298Z,100762.56
2023-04-06T10:41:36.468Z,100761.84
2023-04-06T10:44:03.948Z,100754.47
2023-04-06T10:46:32.636Z,100748.56
2023-04-06T10:49:11.293Z,100759.38
2023-04-06T10:51:39.614Z,100756.25
2023-04-06T10:54:07.739Z,100756.16
2023-04-06T10:56:38.331Z,100756.28
2023-04-06T10:59:06.940Z,100746.00
2023-04-06T11:01:34.014Z,100760.91
2023-04-06T11:04:01.267Z,100735.53
2023-04-06T11:06:32.240Z,100745.19
2023-04-06T11:09:00.039Z,100750.44
2023-04-06T11:11:28.262Z,100743.50
2023-04-06T11:14:00.476Z,100747.84
2023-04-06T11:16:29.570Z,100765.34
2023-04-06T11:18:59.591Z,100732.91
2023-04-06T11:21:48.575Z,100756.38
2023-04-06T11:24:24.171Z,100749.19
2023-04-06T11:26:53.914Z,100757.16
2023-04-06T11:29:23.322Z,100756.41
2023-04-06T11:32:04.353Z,100744.19
2023-04-06T11:34:38.096Z,100753.03
2023-04-06T11:37:10.377Z,100748.66
2023-04-06T11:39:41.981Z,100756.59
2023-04-06T11:42:09.590Z,100671.69
2023-04-06T11:44:43.739Z,100746.06
2023-04-06T11:47:12.068Z,100744.34
2023-04-06T11:49:41.708Z,100729.47
2023-04-06T11:52:24.057Z,100741.75
2023-04-06T11:54:52.815Z,100737.41
2023-04-06T11:57:22.205Z,100754.03
2023-04-06T11:59:49.276Z,100729.47
2023-04-06T12:02:16.562Z,100737.38
2023-04-06T12:04:43.639Z,100732.13
2023-04-06T12:07:10.902Z,100741.72
2023-04-06T12:09:38.057Z,100742.63
2023-04-06T12:12:05.129Z,100739.97
2023-04-06T12:14:32.107Z,100739.06
2023-04-06T12:16:59.674Z,100730.25
2023-04-06T12:19:27.135Z,100731.97
2023-04-06T12:21:55.765Z,100731.94
2023-04-06T12:24:22.876Z,100732.81
2023-04-06T12:26:54.037Z,100731.03
2023-04-06T12:29:26.779Z,100735.38
2023-04-06T12:31:54.328Z,100725.75
2023-04-06T12:34:21.569Z,100734.47
2023-04-06T12:36:48.876Z,100723.00
2023-04-06T12:39:17.099Z,100720.28
2023-04-06T12:41:44.440Z,100712.44
2023-04-06T12:44:12.335Z,100727.28
2023-04-06T12:46:39.434Z,100705.38
2023-04-06T12:49:06.545Z,100725.41
2023-04-06T12:51:33.576Z,100735.84
2023-04-06T12:54:00.853Z,100700.72
2023-04-06T12:56:27.926Z,100720.03
2023-04-06T12:58:55.044Z,100645.41
2023-04-06T13:01:22.405Z,100718.19
2023-04-06T13:03:49.565Z,100720.84
2023-04-06T13:06:16.700Z,100727.06
2023-04-06T13:08:44.201Z,100722.69
2023-04-06T13:11:11.463Z,100727.88
2023-04-06T13:13:38.769Z,100691.06
2023-04-06T13:16:08.881Z,100715.50
2023-04-06T13:18:37.940Z,100716.38
2023-04-06T13:21:08.445Z,100711.97
2023-04-06T13:23:36.859Z,100716.25
2023-04-06T13:26:06.827Z,100716.31
2023-04-06T13:28:36.087Z,100702.16
2023-04-06T13:31:03.519Z,100655.66
2023-04-06T13:33:31.156Z,100707.34
2023-04-06T13:35:59.402Z,100713.38
2023-04-06T13:38:26.479Z,100716.84
2023-04-06T13:40:53.872Z,100699.34
2023-04-06T13:43:21.680Z,100712.50
2023-04-06T13:45:53.410Z,100710.81
2023-04-06T13:48:20.657Z,100714.31
2023-04-06T13:50:48.113Z,100706.41
2023-04-06T13:53:15.106Z,100721.28
2023-04-06T13:55:42.431Z,100690.63
2023-04-06T13:58:09.745Z,100695.84
2023-04-06T14:00:37.901Z,100702.00
2023-04-06T14:03:05.214Z,100710.63
2023-04-06T14:05:33.455Z,100706.16
2023-04-06T14:08:00.529Z,100711.41
2023-04-06T14:10:29.032Z,100690.34
2023-04-06T14:12:57.047Z,100692.09
2023-04-06T14:15:25.106Z,100710.53
2023-04-06T14:17:52.842Z,100693.84
2023-04-06T14:20:20.132Z,100714.81
2023-04-06T14:22:47.786Z,100683.94
2023-04-06T14:25:15.032Z,100702.16
2023-04-06T14:27:41.988Z,100699.50
2023-04-06T14:30:09.730Z,100704.69
2023-04-06T14:32:37.745Z,100718.63
2023-04-06T14:35:07.554Z,100716.78
2023-04-06T14:37:35.401Z,100687.66
2023-04-06T14:40:03.291Z,100709.69
2023-04-06T14:42:30.855Z,100700.97
2023-04-06T14:44:57.869Z,100692.19
2023-04-06T14:47:25.066Z,100706.25
2023-04-06T14:49:53.485Z,100716.75
2023-04-06T14:52:20.710Z,100719.16
2023-04-06T14:54:47.840Z,100720.69
2023-04-06T14:57:14.981Z,100703.97
2023-04-06T14:59:42.114Z,100720.50
2023-04-06T15:02:09.306Z,100715.00
2023-04-06T15:04:37.643Z,100718.47
2023-04-06T15:07:04.904Z,100692.22
2023-04-06T15:09:32.342Z,100712.28
2023-04-06T15:11:59.335Z,100716.75
2023-04-06T15:14:26.347Z,100714.00
2023-04-06T15:16:53.378Z,100727.91
2023-04-06T15:19:20.385Z,100733.06
2023-04-06T15:21:47.338Z,100726.03
2023-04-06T15:24:14.277Z,100727.81
2023-04-06T15:26:41.399Z,100741.59
2023-04-06T15:29:08.755Z,100735.31
2023-04-06T15:31:38.500Z,100742.34
2023-04-06T15:34:09.165Z,100752.72
2023-04-06T15:36:36.696Z,100746.59
2023-04-06T15:39:04.889Z,100752.59
2023-04-06T15:41:32.299Z,100757.78
2023-04-06T15:43:59.376Z,100760.97
2023-04-06T15:46:28.404Z,100747.06
2023-04-06T15:48:56.574Z,100755.03
2023-04-06T15:51:24.476Z,100744.38
2023-04-06T15:53:51.483Z,100753.06
2023-04-06T15:56:18.450Z,100753.06
2023-04-06T15:58:45.755Z,100760.03
2023-04-06T16:01:17.091Z,100767.81
2023-04-06T16:03:45.074Z,100776.38
2023-04-06T16:06:12.510Z,100766.50
2023-04-06T16:08:40.749Z,100776.84
2023-04-06T16:11:08.240Z,100772.34
2023-04-06T16:13:36.433Z,100783.75
2023-04-06T16:16:04.710Z,100761.50
2023-04-06T16:18:34.146Z,100767.41
2023-04-06T16:21:03.227Z,100781.31
2023-04-06T16:23:30.626Z,100787.34
2023-04-06T16:26:00.880Z,100797.88
2023-04-06T16:28:27.907Z,100795.09
2023-04-06T16:30:54.899Z,100801.88
2023-04-06T16:33:24.006Z,100802.59
2023-04-06T16:35:51.309Z,100807.72
2023-04-06T16:38:18.345Z,100785.59
2023-04-06T16:40:45.319Z,100809.19
2023-04-06T16:43:14.238Z,100757.19
2023-04-06T16:45:41.414Z,100811.66
2023-04-06T16:48:08.908Z,100808.03
2023-04-06T16:50:36.494Z,100806.78
2023-04-06T16:53:03.671Z,100812.78
2023-04-06T16:55:30.811Z,100796.06
2023-04-06T16:57:57.747Z,100824.97
2023-04-06T17:00:24.956Z,100798.44
2023-04-06T17:02:52.164Z,100822.00
2023-04-06T17:05:24.792Z,100836.84
2023-04-06T17:07:52.561Z,100837.63
2023-04-06T17:10:28.646Z,100840.94
2023-04-06T17:13:01.526Z,100831.94
2023-04-06T17:15:29.894Z,100827.28
2023-04-06T17:17:57.978Z,100845.44
2023-04-06T17:20:25.147Z,100846.31
2023-04-06T17:22:52.211Z,100854.78
2023-04-06T17:25:19.518Z,100851.31
2023-04-06T17:27:46.488Z,100844.06
2023-04-06T17:30:16.228Z,100873.66
2023-04-06T17:32:45.321Z,100854.31
2023-04-06T17:35:12.490Z,100861.25
2023-04-06T17:37:40.560Z,100859.22
2023-04-06T17:40:08.182Z,100809.78
2023-04-06T17:42:35.183Z,100870.34
2023-04-06T17:45:02.239Z,100872.81
2023-04-06T17:47:32.469Z,100870.84
2023-04-06T17:50:00.884Z,100851.16
2023-04-06T17:52:29.738Z,100876.53
2023-04-06T17:54:56.758Z,100834.97
2023-04-06T17:57:24.065Z,100734.81
2023-04-06T17:59:51.344Z,100875.63
2023-04-06T18:02:20.234Z,100883.31
2023-04-06T18:04:51.072Z,100891.09
2023-04-06T18:07:18.150Z,100892.50
2023-04-06T18:09:45.610Z,100897.72
2023-04-06T18:12:12.624Z,100894.06
2023-04-06T18:14:40.340Z,100864.94
2023-04-06T18:17:07.355Z,100878.78
2023-04-06T18:19:34.693Z,100874.09
2023-04-06T18:22:01.678Z,100902.94
2023-04-06T18:24:41.355Z,100880.53
2023-04-06T18:27:11.240Z,100837.97
2023-04-06T18:29:38.418Z,100904.56
2023-04-06T18:32:07.256Z,100875.38
2023-04-06T18:34:35.512Z,100889.41
2023-04-06T18:37:02.662Z,100899.81
2023-04-06T18:39:29.755Z,100907.56
2023-04-06T18:41:56.795Z,100897.81
2023-04-06T18:44:23.861Z,100909.88
2023-04-06T18:46:53.464Z,100908.84
2023-04-06T18:49:22.113Z,100892.97
2023-04-06T18:51:49.212Z,100909.28
2023-04-06T18:54:16.250Z,100905.88
2023-04-06T18:56:43.317Z,100912.66
2023-04-06T18:59:10.863Z,100870.28
2023-04-06T19:01:43.615Z,100917.72
2023-04-06T19:04:11.848Z,100907.09
2023-04-06T19:06:39.163Z,100890.94
2023-04-06T19:09:06.316Z,100922.28
2023-04-06T19:11:33.413Z,100849.06
2023-04-06T19:14:00.607Z,100917.78
2023-04-06T19:16:27.738Z,100906.16
2023-04-06T19:18:55.598Z,100916.53
2023-04-06T19:21:24.230Z,100875.06
2023-04-06T19:23:52.671Z,100900.41
2023-04-06T19:26:20.884Z,100917.81
2023-04-06T19:28:48.523Z,100893.97
2023-04-06T19:31:17.396Z,100920.91
2023-04-06T19:33:45.457Z,100914.53
2023-04-06T19:36:12.917Z,100917.66
2023-04-06T19:38:40.376Z,100898.03
2023-04-06T19:41:08.474Z,100899.38
2023-04-06T19:43:35.579Z,100910.88
2023-04-06T19:46:03.109Z,100913.22
2023-04-06T19:48:30.769Z,100899.47
2023-04-06T19:50:57.751Z,100913.53
2023-04-06T19:53:24.868Z,100918.72
2023-04-06T19:55:51.896Z,100899.19
2023-04-06T19:58:19.250Z,100919.13
2023-04-06T20:00:46.228Z,100901.34
2023-04-06T20:03:13.507Z,100917.94
2023-04-06T20:05:40.562Z,100919.44
2023-04-06T20:08:07.844Z,100910.94
2023-04-06T20:10:34.961Z,100887.03
2023-04-06T20:13:01.926Z,100908.09
2023-04-06T20:15:29.884Z,100913.44
2023-04-06T20:17:57.025Z,100897.44
2023-04-06T20:20:24.075Z,100883.25
2023-04-06T20:22:51.156Z,100928.75
2023-04-06T20:25:18.803Z,100922.47
2023-04-06T20:27:46.044Z,100924.13
2023-04-06T20:30:17.128Z,100928.47
2023-04-06T20:32:44.172Z,100924.00
2023-04-06T20:35:11.614Z,100921.31
2023-04-06T20:37:38.949Z,100918.75
2023-04-06T20:40:06.785Z,100873.22
2023-04-06T20:42:34.720Z,100913.53
2023-04-06T20:45:03.321Z,100918.03
2023-04-06T20:47:31.762Z,100929.19
2023-04-06T20:49:59.009Z,100925.78
2023-04-06T20:52:26.910Z,100930.72
2023-04-06T20:54:54.927Z,100928.16
2023-04-06T20:57:22.791Z,100858.03
2023-04-06T20:59:49.948Z,100923.25
2023-04-06T21:02:17.692Z,100931.28
2023-04-06T21:04:45.203Z,100915.44
2023-04-06T21:07:12.388Z,100922.38
2023-04-06T21:09:40.539Z,100932.75
2023-04-06T21:12:08.070Z,100947.25
2023-04-06T21:14:35.109Z,100910.25
2023-04-06T21:17:02.493Z,100931.13
2023-04-06T21:19:29.553Z,100939.91
2023-04-06T21:21:56.726Z,100948.47
2023-04-06T21:24:23.719Z,100942.00
2023-04-06T21:26:50.763Z,100940.09
2023-04-06T21:29:17.811Z,100850.19
2023-04-06T21:31:44.788Z,100927.63
2023-04-06T21:34:13.651Z,100938.84
2023-04-06T21:36:41.999Z,100930.59
2023-04-06T21:39:09.196Z,100931.50
2023-04-06T21:41:36.384Z,100948.81
2023-04-06T21:44:03.654Z,100951.41
2023-04-06T21:46:30.764Z,100961.88
2023-04-06T21:48:57.837Z,100940.56
2023-04-06T21:51:25.400Z,100952.69
2023-04-06T21:53:53.777Z,100926.88
2023-04-06T21:56:22.512Z,100957.69
2023-04-06T21:58:50.726Z,100961.38
2023-04-06T22:01:18.362Z,100966.31
2023-04-06T22:03:46.934Z,100962.72
2023-04-06T22:06:14.273Z,100963.06
2023-04-06T22:08:41.366Z,100965.59
2023-04-06T22:11:11.318Z,100962.84
2023-04-06T22:13:39.244Z,100956.31
2023-04-06T22:16:07.151Z,100946.78
2023-04-06T22:18:36.047Z,100942.44
2023-04-06T22:21:04.445Z,100892.28
2023-04-06T22:23:34.485Z,100916.88
2023-04-06T22:26:01.614Z,100946.50
2023-04-06T22:28:28.664Z,100955.47
2023-04-06T22:30:55.618Z,100905.00
2023-04-06T22:33:22.647Z,100952.84
2023-04-06T22:35:49.901Z,100954.44
2023-04-06T22:38:16.946Z,100959.53
2023-04-06T22:40:43.988Z,100962.84
2023-04-06T22:43:10.939Z,100950.41
2023-04-06T22:45:38.108Z,100957.97
2023-04-06T22:48:05.197Z,100956.94
2023-04-06T22:50:32.252Z,100958.72
2023-04-06T22:52:59.233Z,100959.44
2023-04-06T22:55:26.309Z,100954.78
2023-04-06T22:57:53.421Z,100965.09
2023-04-06T23:00:20.762Z,100953.38
2023-04-06T23:02:47.834Z,100947.09
2023-04-06T23:05:15.012Z,100955.72
2023-04-06T23:07:42.039Z,100900.81
2023-04-06T23:10:09.628Z,100962.88
2023-04-06T23:12:36.601Z,100939.88
2023-04-06T23:15:03.709Z,100963.38
2023-04-06T23:17:30.782Z,100952.63
2023-04-06T23:19:57.738Z,100958.66
2023-04-06T23:22:24.703Z,100953.25
2023-04-06T23:24:51.665Z,100945.13
2023-04-06T23:27:18.615Z,100955.06
2023-04-06T23:29:45.802Z,100940.84
2023-04-06T23:32:12.899Z,100931.69
2023-04-06T23:34:40.034Z,100942.44
2023-04-06T23:37:07.020Z,100939.47
2023-04-06T23:39:35.572Z,100929.66
2023-04-06T23:42:02.568Z,100937.63
2023-04-06T23:44:30.952Z,100872.78
2023-04-06T23:46:57.989Z,100940.53
2023-04-06T23:49:25.024Z,100934.41
2023-04-06T23:51:51.952Z,100939.41
2023-04-06T23:54:18.864Z,100935.78
2023-04-06T23:56:46.479Z,100934.09
2023-04-06T23:59:13.457Z,100925.41
